»·PEaware :: UAL43 LIRF-KSFO

UAL43 :: LIRF-KSFO

FLIGHT INFORMATION

Flight Status: Arrived
Operator:
United Airlines
More flights by this operator :: More flights under this callsign
Pilot: Mark Y. (14349)
Aircraft: BOEING 767-300
(B763)
More flights by this aircraft type
Origin: LIRF Fiumicino
Italy
Destination: KSFO San Francisco Intl
United States
More flights between these airports :: More routes between these airports
Route: TIMOV CLM TNT GOMUP EPMAN YYN GTF FMG ECA RISTI4
File this flight plan on PilotEdge
Remarks:
Altitude:
(Current/Filed)
34,000ft
Speed:
(Current/Filed)
300kts
Departed: 20-Feb-17 12:03 PM
Arrived: 21-Feb-17 02:16 AM
Distance/Time
Traveled:
5427nm/14:13
Distance/Time
To Go:
Arrived

Flight Plot

Page will automatically refresh every two minutes.

Flight plan parsing failed; only flown route is shown


Map Options




Map Legend


Flown Route
Filed Route
Departure Airport
Arrival Airport
Navaid (VOR, NDB)
Fix

Horizontal Profiles

Position Reports

Time Latitude Longitude Heading Altitude Ground
Speed
20-Feb-17 12:03 42.012799 12.130670 340 6605ft 231kts
20-Feb-17 12:04 42.073652 12.101570 340 8437ft 236kts
20-Feb-17 12:05 42.133015 12.073145 340 9672ft 263kts
20-Feb-17 12:06 42.204364 12.038885 340 9965ft 273kts
20-Feb-17 12:07 42.276254 12.004265 342 11741ft 279kts
20-Feb-17 12:08 42.349897 11.968732 342 13821ft 284kts
20-Feb-17 12:09 42.424443 11.932667 343 15685ft 288kts
20-Feb-17 12:10 42.500637 11.899650 359 17346ft 288kts
20-Feb-17 12:11 42.580826 11.897286 1 18940ft 291kts
20-Feb-17 12:12 42.661943 11.895426 1 20431ft 295kts
20-Feb-17 12:13 42.744449 11.893601 1 21797ft 298kts
20-Feb-17 12:14 42.827569 11.890704 353 23004ft 304kts
20-Feb-17 12:15 42.905919 11.839442 338 24002ft 319kts
20-Feb-17 12:16 42.985232 11.781513 339 24876ft 328kts
20-Feb-17 12:17 43.066450 11.721856 339 25716ft 335kts
20-Feb-17 12:18 43.146403 11.662942 339 26638ft 338kts
20-Feb-17 12:19 43.229369 11.601623 340 27537ft 341kts
20-Feb-17 12:20 43.313005 11.539672 340 28368ft 345kts
20-Feb-17 12:21 43.397406 11.476957 340 29125ft 348kts
20-Feb-17 12:22 43.482673 11.413402 340 29839ft 351kts
20-Feb-17 12:23 43.568280 11.349706 340 30479ft 354kts
20-Feb-17 12:24 43.655127 11.285240 340 31013ft 357kts
20-Feb-17 12:25 43.742154 11.219782 340 31510ft 359kts
20-Feb-17 12:26 43.830022 11.153391 340 31964ft 361kts
20-Feb-17 12:27 43.918034 11.086657 341 32367ft 363kts
20-Feb-17 12:28 44.006570 11.019206 338 32737ft 366kts
20-Feb-17 12:29 44.081259 10.914139 320 33034ft 390kts
20-Feb-17 12:30 44.150847 10.799245 319 33450ft 391kts
20-Feb-17 12:31 44.220901 10.682780 319 33807ft 393kts
20-Feb-17 12:32 44.290966 10.565836 319 34014ft 395kts
20-Feb-17 12:33 44.361000 10.448440 320 34021ft 395kts
20-Feb-17 12:34 44.430614 10.331407 319 34014ft 395kts
20-Feb-17 12:35 44.501004 10.213530 319 34015ft 396kts
20-Feb-17 12:36 44.571022 10.094796 319 34014ft 396kts
20-Feb-17 12:37 44.640906 9.975724 319 34015ft 396kts
20-Feb-17 12:38 44.710615 9.856438 319 34013ft 396kts
20-Feb-17 12:39 44.780184 9.736899 319 34013ft 396kts
20-Feb-17 12:40 44.849789 9.616790 319 34012ft 396kts
20-Feb-17 12:41 44.919180 9.496542 319 34012ft 396kts
20-Feb-17 12:42 44.988334 9.376204 318 34011ft 394kts
20-Feb-17 12:43 45.056931 9.257410 316 34007ft 390kts
20-Feb-17 12:44 45.124365 9.139300 315 34021ft 389kts
20-Feb-17 12:45 45.192023 9.020088 315 34018ft 389kts
20-Feb-17 12:45 45.248361 8.920431 314 34004ft 390kts
20-Feb-17 12:46 45.316023 8.800255 314 33991ft 391kts
20-Feb-17 12:47 45.383740 8.679481 314 33991ft 391kts
20-Feb-17 12:49 45.462010 8.539245 314 33989ft 391kts
20-Feb-17 12:49 45.518051 8.438407 314 33989ft 391kts
20-Feb-17 12:51 45.596338 8.297697 313 33983ft 391kts
20-Feb-17 12:51 45.652449 8.196396 313 33987ft 391kts
20-Feb-17 12:52 45.719597 8.074116 313 33918ft 391kts
20-Feb-17 12:53 45.782311 7.946344 309 33794ft 394kts
20-Feb-17 12:54 45.843394 7.816290 309 33750ft 394kts
20-Feb-17 12:55 45.904472 7.685634 309 33748ft 394kts
20-Feb-17 12:56 45.965092 7.555263 309 33811ft 394kts
20-Feb-17 12:58 46.043258 7.412171 314 33932ft 390kts
20-Feb-17 12:58 46.099219 7.311519 314 34022ft 391kts
20-Feb-17 12:59 46.166463 7.189942 313 34046ft 391kts
20-Feb-17 13:00 46.233949 7.066641 313 34047ft 392kts
20-Feb-17 13:01 46.301275 6.943010 312 34046ft 393kts
20-Feb-17 13:02 46.368539 6.818924 312 34045ft 393kts
20-Feb-17 13:03 46.435357 6.694952 313 34044ft 393kts
20-Feb-17 13:04 46.509214 6.580278 318 34043ft 389kts
20-Feb-17 13:05 46.583906 6.466986 318 34042ft 390kts
20-Feb-17 13:06 46.658628 6.353098 318 34041ft 390kts
20-Feb-17 13:07 46.733204 6.240070 317 34040ft 390kts
20-Feb-17 13:08 46.807689 6.125701 317 34032ft 390kts
20-Feb-17 13:09 46.881797 6.011294 317 34036ft 390kts
20-Feb-17 13:10 46.957282 5.900388 328 34035ft 380kts
20-Feb-17 13:11 47.049434 5.826567 332 34036ft 377kts
20-Feb-17 13:12 47.141619 5.755228 332 34047ft 377kts
20-Feb-17 13:13 47.234013 5.683652 332 34045ft 377kts
20-Feb-17 13:14 47.326615 5.611648 332 34044ft 377kts
20-Feb-17 13:15 47.418934 5.539578 332 34043ft 377kts
20-Feb-17 13:16 47.510733 5.465569 325 34036ft 377kts
20-Feb-17 13:17 47.579074 5.346730 309 34039ft 382kts
20-Feb-17 13:18 47.642000 5.221920 309 34042ft 382kts
20-Feb-17 13:19 47.704667 5.095134 309 34042ft 382kts
20-Feb-17 13:20 47.767286 4.967659 308 34041ft 383kts
20-Feb-17 13:21 47.829946 4.839474 308 34040ft 385kts
20-Feb-17 13:22 47.892871 4.710119 308 34011ft 385kts
20-Feb-17 13:23 47.955420 4.580938 308 33987ft 385kts
20-Feb-17 13:24 48.017861 4.451369 308 33983ft 385kts
20-Feb-17 13:25 48.079880 4.322359 308 33985ft 386kts
20-Feb-17 13:26 48.142500 4.192359 307 33993ft 386kts
20-Feb-17 13:27 48.204661 4.061605 307 33992ft 386kts
20-Feb-17 13:28 48.269516 3.934799 315 33997ft 384kts
20-Feb-17 13:29 48.342806 3.818757 315 33990ft 384kts
20-Feb-17 13:30 48.416333 3.702163 315 33989ft 384kts
20-Feb-17 13:31 48.489502 3.585648 315 33988ft 384kts
20-Feb-17 13:32 48.562608 3.468709 315 33987ft 384kts
20-Feb-17 13:33 48.635263 3.351968 315 33986ft 384kts
20-Feb-17 13:34 48.708245 3.235389 314 33988ft 384kts
20-Feb-17 13:35 48.780996 3.117584 314 33987ft 384kts
20-Feb-17 13:36 48.856356 3.005063 327 33982ft 383kts
20-Feb-17 13:37 48.948682 2.923180 329 33963ft 385kts
20-Feb-17 13:38 49.040423 2.842519 328 33956ft 377kts
20-Feb-17 13:39 49.129287 2.764142 326 33964ft 371kts
20-Feb-17 13:40 49.218578 2.685008 326 33962ft 371kts
20-Feb-17 13:41 49.307561 2.605855 326 33961ft 371kts
20-Feb-17 13:42 49.396361 2.526537 326 33959ft 371kts
20-Feb-17 13:43 49.485282 2.446768 326 33949ft 371kts
20-Feb-17 13:44 49.582508 2.390143 338 33957ft 378kts
20-Feb-17 13:45 49.683114 2.344188 338 33889ft 379kts
20-Feb-17 13:46 49.784034 2.298959 338 33835ft 378kts
20-Feb-17 13:47 49.884291 2.253072 338 33874ft 378kts
20-Feb-17 13:48 49.984646 2.206841 338 33863ft 378kts
20-Feb-17 13:49 50.085298 2.160256 338 33762ft 379kts
20-Feb-17 13:50 50.185578 2.113633 338 33755ft 378kts
20-Feb-17 13:51 50.286151 2.066670 338 33754ft 378kts
20-Feb-17 13:52 50.382668 2.008137 319 33761ft 369kts
20-Feb-17 13:53 50.460714 1.905141 316 33753ft 368kts
20-Feb-17 13:54 50.538016 1.799684 316 33752ft 368kts
20-Feb-17 13:55 50.614697 1.694267 316 33749ft 368kts
20-Feb-17 13:56 50.691516 1.588131 316 33749ft 368kts
20-Feb-17 13:57 50.768205 1.481661 316 33747ft 368kts
20-Feb-17 13:58 50.844564 1.375192 316 33772ft 368kts
20-Feb-17 13:59 50.920195 1.270347 315 33840ft 360kts
20-Feb-17 14:00 50.993773 1.167142 314 33879ft 349kts
20-Feb-17 14:01 51.065124 1.066221 312 33875ft 342kts
20-Feb-17 14:02 51.133298 0.960539 311 33883ft 344kts
20-Feb-17 14:03 51.201487 0.854345 310 33883ft 345kts
20-Feb-17 14:04 51.269345 0.748215 311 33871ft 344kts
20-Feb-17 14:05 51.337682 0.640873 311 33855ft 345kts
20-Feb-17 14:06 51.405748 0.533481 311 33849ft 345kts
20-Feb-17 14:07 51.473915 0.425452 310 33852ft 345kts
20-Feb-17 14:08 51.541555 0.318240 310 33874ft 345kts
20-Feb-17 14:09 51.609759 0.210101 310 33870ft 345kts
20-Feb-17 14:10 51.677206 0.100875 309 33869ft 344kts
20-Feb-17 14:11 51.744067 -0.009151 309 33870ft 344kts
20-Feb-17 14:12 51.810849 -0.119542 309 33857ft 344kts
20-Feb-17 14:13 51.877471 -0.230176 309 33849ft 344kts
20-Feb-17 14:14 51.943792 -0.340807 309 33847ft 344kts
20-Feb-17 14:15 52.010344 -0.452327 309 33845ft 344kts
20-Feb-17 14:16 52.076580 -0.563824 309 33842ft 344kts
20-Feb-17 14:17 52.142335 -0.674745 309 33862ft 344kts
20-Feb-17 14:18 52.208651 -0.786267 309 33849ft 344kts
20-Feb-17 14:19 52.282299 -0.886273 321 33837ft 354kts
20-Feb-17 14:20 52.365842 -0.970029 321 33804ft 354kts
20-Feb-17 14:21 52.449707 -1.054045 321 33814ft 356kts
20-Feb-17 14:22 52.534218 -1.139123 321 33819ft 358kts
20-Feb-17 14:23 52.619057 -1.224865 321 33825ft 360kts
20-Feb-17 14:25 52.718518 -1.325847 321 33822ft 360kts
20-Feb-17 14:25 52.789198 -1.397999 321 33821ft 360kts
20-Feb-17 14:26 52.874279 -1.485226 321 33822ft 360kts
20-Feb-17 14:27 52.959147 -1.572642 321 33819ft 360kts
20-Feb-17 14:28 53.040069 -1.662628 307 33820ft 340kts
20-Feb-17 14:29 53.083069 -1.796523 290 33827ft 326kts
20-Feb-17 14:30 53.116595 -1.934244 289 33831ft 321kts
20-Feb-17 14:31 53.149050 -2.072153 289 33829ft 320kts
20-Feb-17 14:32 53.181183 -2.210095 289 33826ft 320kts
20-Feb-17 14:33 53.213098 -2.348057 289 33824ft 320kts
20-Feb-17 14:34 53.244970 -2.486742 289 33828ft 320kts
20-Feb-17 14:35 53.276579 -2.625190 289 33843ft 320kts
20-Feb-17 14:36 53.321357 -2.750585 315 33834ft 330kts
20-Feb-17 14:37 53.401144 -2.831193 320 33833ft 337kts
20-Feb-17 14:38 53.481926 -2.910485 318 33828ft 335kts
20-Feb-17 14:39 53.559438 -2.995725 317 33826ft 334kts
20-Feb-17 14:40 53.636764 -3.081167 316 33825ft 333kts
20-Feb-17 14:41 53.713931 -3.167245 313 33821ft 330kts
20-Feb-17 14:42 53.766705 -3.286158 298 33821ft 316kts
20-Feb-17 14:43 53.812527 -3.411901 297 33817ft 315kts
20-Feb-17 14:44 53.858003 -3.538738 297 33816ft 315kts
20-Feb-17 14:45 53.903234 -3.665790 296 33823ft 315kts
20-Feb-17 14:46 53.948798 -3.792740 296 33828ft 316kts
20-Feb-17 14:47 54.006259 -3.907430 306 33825ft 322kts
20-Feb-17 14:48 54.067434 -4.018145 306 33823ft 322kts
20-Feb-17 14:49 54.128362 -4.128642 306 33828ft 322kts
20-Feb-17 14:50 54.189417 -4.239852 306 33826ft 322kts
20-Feb-17 14:51 54.250522 -4.351665 306 33823ft 322kts
20-Feb-17 14:52 54.311532 -4.463818 306 33820ft 322kts
20-Feb-17 14:53 54.372318 -4.576091 305 33819ft 322kts
20-Feb-17 14:54 54.432987 -4.688054 305 33834ft 322kts
20-Feb-17 14:55 54.493695 -4.800284 305 33831ft 322kts
20-Feb-17 14:56 54.554223 -4.913524 305 33829ft 322kts
20-Feb-17 14:57 54.614435 -5.026822 305 33826ft 321kts
20-Feb-17 14:58 54.674581 -5.140552 304 33814ft 321kts
20-Feb-17 14:59 54.734764 -5.254898 304 33798ft 321kts
20-Feb-17 15:00 54.794592 -5.369103 304 33791ft 321kts
20-Feb-17 15:01 54.854589 -5.484191 305 33791ft 321kts
20-Feb-17 15:03 54.914116 -5.598884 304 33786ft 319kts
20-Feb-17 15:04 54.973112 -5.712090 304 33802ft 314kts
20-Feb-17 15:05 55.031020 -5.824108 303 33804ft 310kts
20-Feb-17 15:06 55.088155 -5.935739 302 33806ft 309kts
20-Feb-17 15:07 55.145009 -6.047381 303 33795ft 309kts
20-Feb-17 15:08 55.201809 -6.159448 302 33774ft 308kts
20-Feb-17 15:09 55.258621 -6.272065 302 33770ft 309kts
20-Feb-17 15:10 55.315406 -6.385158 302 33769ft 309kts
20-Feb-17 15:11 55.371947 -6.498288 302 33764ft 309kts
20-Feb-17 15:12 55.428503 -6.611991 302 33762ft 309kts
20-Feb-17 15:13 55.484984 -6.724875 302 33778ft 309kts
20-Feb-17 15:14 55.541435 -6.838898 302 33777ft 308kts
20-Feb-17 15:15 55.597602 -6.953347 301 33773ft 308kts
20-Feb-17 15:16 55.653650 -7.068169 301 33763ft 308kts
20-Feb-17 15:17 55.709479 -7.183118 301 33753ft 309kts
20-Feb-17 15:18 55.765375 -7.298750 301 33747ft 309kts
20-Feb-17 15:19 55.821047 -7.414471 301 33743ft 308kts
20-Feb-17 15:20 55.876700 -7.530716 301 33741ft 309kts
20-Feb-17 15:21 55.932160 -7.647118 301 33739ft 309kts
20-Feb-17 15:22 55.988020 -7.763386 301 33755ft 309kts
20-Feb-17 15:23 56.043375 -7.880394 301 33752ft 309kts
20-Feb-17 15:24 56.098357 -7.997449 301 33751ft 309kts
20-Feb-17 15:25 56.153430 -8.115308 300 33752ft 309kts
20-Feb-17 15:26 56.208290 -8.233298 300 33750ft 309kts
20-Feb-17 15:27 56.263048 -8.351646 300 33747ft 309kts
20-Feb-17 15:28 56.317786 -8.470542 300 33747ft 309kts
20-Feb-17 15:29 56.372441 -8.589843 300 33744ft 309kts
20-Feb-17 15:30 56.426907 -8.708295 300 33759ft 309kts
20-Feb-17 15:31 56.481451 -8.827730 300 33756ft 309kts
20-Feb-17 15:32 56.535628 -8.947649 300 33754ft 308kts
20-Feb-17 15:33 56.590025 -9.068751 299 33749ft 310kts
20-Feb-17 15:34 56.644184 -9.189975 299 33750ft 311kts
20-Feb-17 15:35 56.698409 -9.311944 299 33747ft 311kts
20-Feb-17 15:36 56.752492 -9.434221 299 33745ft 311kts
20-Feb-17 15:37 56.806345 -9.556595 300 33737ft 306kts
20-Feb-17 15:38 56.859735 -9.678169 300 33758ft 307kts
20-Feb-17 15:39 56.913261 -9.799609 300 33754ft 307kts
20-Feb-17 15:40 56.966298 -9.921787 299 33751ft 308kts
20-Feb-17 15:41 57.021667 -10.044261 303 33750ft 317kts
20-Feb-17 15:42 57.080994 -10.165708 303 33746ft 323kts
20-Feb-17 15:43 57.141253 -10.289777 304 33753ft 328kts
20-Feb-17 15:44 57.201690 -10.414869 304 33748ft 328kts
20-Feb-17 15:45 57.262108 -10.540629 303 33746ft 327kts
20-Feb-17 15:46 57.322201 -10.666308 303 33755ft 328kts
20-Feb-17 15:47 57.382871 -10.792298 303 33752ft 327kts
20-Feb-17 15:48 57.442640 -10.918521 302 33754ft 327kts
20-Feb-17 15:49 57.502331 -11.045437 302 33753ft 326kts
20-Feb-17 15:50 57.561794 -11.172597 302 33750ft 326kts
20-Feb-17 15:51 57.621081 -11.300064 302 33745ft 325kts
20-Feb-17 15:52 57.680258 -11.427990 302 33745ft 327kts
20-Feb-17 15:53 57.739173 -11.556044 302 33743ft 326kts
20-Feb-17 15:54 57.798090 -11.684306 302 33758ft 326kts
20-Feb-17 15:55 57.857071 -11.812576 302 33758ft 326kts
20-Feb-17 15:56 57.915629 -11.941783 301 33753ft 326kts
20-Feb-17 15:57 57.974108 -12.071691 301 33752ft 326kts
20-Feb-17 15:58 58.032498 -12.202150 301 33748ft 325kts
20-Feb-17 15:59 58.090778 -12.333070 302 33747ft 326kts
20-Feb-17 16:00 58.148768 -12.464089 301 33747ft 326kts
20-Feb-17 16:01 58.206654 -12.595600 301 33747ft 325kts
20-Feb-17 16:02 58.264825 -12.727184 301 33753ft 325kts
20-Feb-17 16:03 58.322533 -12.859074 300 33755ft 325kts
20-Feb-17 16:04 58.379958 -12.991668 300 33754ft 326kts
20-Feb-17 16:05 58.437125 -13.124476 301 33753ft 325kts
20-Feb-17 16:06 58.494173 -13.257795 300 33705ft 324kts
20-Feb-17 16:07 58.550991 -13.391324 300 33396ft 325kts
20-Feb-17 16:08 58.607728 -13.525430 300 33203ft 325kts
20-Feb-17 16:09 58.664316 -13.659916 300 33205ft 324kts
20-Feb-17 16:10 58.721177 -13.794007 300 33211ft 323kts
20-Feb-17 16:11 58.777596 -13.929396 299 33205ft 324kts
20-Feb-17 16:12 58.833686 -14.065012 299 33208ft 324kts
20-Feb-17 16:13 58.889511 -14.200811 300 33203ft 324kts
20-Feb-17 16:14 58.946130 -14.339414 300 33202ft 333kts
20-Feb-17 16:15 59.004374 -14.482773 300 33201ft 343kts
20-Feb-17 16:16 59.063612 -14.629454 301 33202ft 347kts
20-Feb-17 16:17 59.123320 -14.776418 300 33210ft 348kts
20-Feb-17 16:18 59.182540 -14.924536 300 33207ft 347kts
20-Feb-17 16:19 59.241532 -15.073384 300 33204ft 349kts
20-Feb-17 16:20 59.300649 -15.223567 300 33204ft 349kts
20-Feb-17 16:21 59.359466 -15.373931 299 33203ft 349kts
20-Feb-17 16:22 59.418274 -15.525239 300 33199ft 349kts
20-Feb-17 16:23 59.476963 -15.676956 299 33205ft 349kts
20-Feb-17 16:24 59.535777 -15.828415 299 33210ft 348kts
20-Feb-17 16:25 59.594535 -15.982449 299 33221ft 360kts
20-Feb-17 16:26 59.655834 -16.144397 299 33225ft 378kts
20-Feb-17 16:27 59.720211 -16.315704 300 33223ft 396kts
20-Feb-17 16:28 59.774694 -16.461602 300 33208ft 399kts
20-Feb-17 16:29 59.840290 -16.638566 299 33201ft 399kts
20-Feb-17 16:30 59.906214 -16.815410 299 33202ft 398kts
20-Feb-17 16:31 59.971514 -16.993819 298 33185ft 400kts
20-Feb-17 16:31 60.025800 -17.143565 298 33184ft 400kts
20-Feb-17 16:32 60.090946 -17.324550 298 33177ft 401kts
20-Feb-17 16:34 60.166420 -17.536042 298 33174ft 401kts
20-Feb-17 16:35 60.230982 -17.717200 298 33189ft 399kts
20-Feb-17 16:36 60.295421 -17.899187 297 33181ft 400kts
20-Feb-17 16:36 60.348565 -18.051325 296 33222ft 396kts
20-Feb-17 16:37 60.409434 -18.227175 296 33178ft 379kts
20-Feb-17 16:38 60.469673 -18.402560 295 33178ft 380kts
20-Feb-17 16:39 60.529673 -18.578511 296 33172ft 381kts
20-Feb-17 16:40 60.589700 -18.753974 295 33189ft 381kts
20-Feb-17 16:41 60.649461 -18.930895 295 33185ft 380kts
20-Feb-17 16:42 60.708869 -19.108973 294 33182ft 381kts
20-Feb-17 16:43 60.768480 -19.289205 294 33181ft 383kts
20-Feb-17 16:45 60.837845 -19.500734 294 33179ft 386kts
20-Feb-17 16:45 60.887270 -19.652616 293 33179ft 384kts
20-Feb-17 16:46 60.946845 -19.834353 292 33185ft 385kts
20-Feb-17 16:47 61.006110 -20.017031 296 33178ft 387kts
20-Feb-17 16:48 61.071744 -20.194842 296 33179ft 390kts
20-Feb-17 16:49 61.136645 -20.372648 296 33171ft 390kts
20-Feb-17 16:50 61.201701 -20.552407 297 33177ft 390kts
20-Feb-17 16:51 61.266720 -20.731872 296 33186ft 390kts
20-Feb-17 16:52 61.331250 -20.911644 295 33182ft 391kts
20-Feb-17 16:53 61.396292 -21.095504 295 33183ft 399kts
20-Feb-17 16:54 61.462078 -21.283008 295 33177ft 402kts
20-Feb-17 16:55 61.527952 -21.472330 295 33176ft 402kts
20-Feb-17 16:56 61.593331 -21.661822 295 33169ft 403kts
20-Feb-17 16:57 61.659212 -21.851639 294 33137ft 402kts
20-Feb-17 16:58 61.724315 -22.043142 294 33130ft 403kts
20-Feb-17 16:59 61.788899 -22.234996 295 33128ft 403kts
20-Feb-17 17:00 61.853359 -22.428157 294 33130ft 403kts
20-Feb-17 17:01 61.917578 -22.622232 294 33124ft 403kts
20-Feb-17 17:02 61.981971 -22.815913 294 33137ft 403kts
20-Feb-17 17:03 62.046181 -23.012763 294 33132ft 410kts
20-Feb-17 17:04 62.110539 -23.212229 294 33132ft 415kts
20-Feb-17 17:05 62.175639 -23.415820 294 33119ft 416kts
20-Feb-17 17:06 62.240253 -23.619730 294 33121ft 416kts
20-Feb-17 17:07 62.305405 -23.824481 293 33129ft 414kts
20-Feb-17 17:08 62.369455 -24.029706 293 33126ft 414kts
20-Feb-17 17:09 62.433185 -24.236288 293 33124ft 415kts
20-Feb-17 17:10 62.496627 -24.443883 293 33123ft 416kts
20-Feb-17 17:11 62.559741 -24.652299 293 33122ft 414kts
20-Feb-17 17:12 62.623112 -24.860458 292 33128ft 412kts
20-Feb-17 17:13 62.685516 -25.070024 292 33128ft 418kts
20-Feb-17 17:14 62.748952 -25.285356 293 33130ft 425kts
20-Feb-17 17:15 62.812271 -25.502326 293 33127ft 425kts
20-Feb-17 17:16 62.875675 -25.720415 293 33136ft 424kts
20-Feb-17 17:17 62.938739 -25.938755 292 33135ft 424kts
20-Feb-17 17:18 63.000891 -26.157869 292 33135ft 424kts
20-Feb-17 17:19 63.063029 -26.379253 292 33129ft 425kts
20-Feb-17 17:20 63.124232 -26.599521 292 33115ft 424kts
20-Feb-17 17:21 63.186020 -26.821172 292 33127ft 424kts
20-Feb-17 17:22 63.247176 -27.045003 292 33127ft 427kts
20-Feb-17 17:23 63.308333 -27.271610 293 33124ft 429kts
20-Feb-17 17:24 63.369121 -27.499293 292 33124ft 429kts
20-Feb-17 17:25 63.429985 -27.728052 292 33128ft 428kts
20-Feb-17 17:26 63.490496 -27.957321 292 33129ft 428kts
20-Feb-17 17:27 63.550164 -28.187659 292 33127ft 428kts
20-Feb-17 17:28 63.609362 -28.418745 292 33127ft 429kts
20-Feb-17 17:29 63.668003 -28.650095 291 33126ft 429kts
20-Feb-17 17:30 63.727372 -28.883291 291 33131ft 429kts
20-Feb-17 17:31 63.785622 -29.117569 292 33130ft 430kts
20-Feb-17 17:32 63.843629 -29.353745 292 33129ft 430kts
20-Feb-17 17:33 63.901285 -29.591135 292 33128ft 430kts
20-Feb-17 17:34 63.958929 -29.827852 291 33145ft 429kts
20-Feb-17 17:35 64.008368 -30.072196 282 33219ft 421kts
20-Feb-17 17:36 64.044179 -30.324286 282 33219ft 419kts
20-Feb-17 17:37 64.078105 -30.575918 282 33210ft 414kts
20-Feb-17 17:38 64.111898 -30.826563 281 33208ft 414kts
20-Feb-17 17:39 64.144918 -31.078913 281 33208ft 416kts
20-Feb-17 17:40 64.177655 -31.334489 282 33205ft 419kts
20-Feb-17 17:41 64.209889 -31.590415 282 33204ft 419kts
20-Feb-17 17:42 64.242409 -31.847193 281 33210ft 419kts
20-Feb-17 17:43 64.273914 -32.104229 281 33208ft 418kts
20-Feb-17 17:44 64.304817 -32.362016 281 33206ft 419kts
20-Feb-17 17:45 64.335276 -32.620618 281 33205ft 419kts
20-Feb-17 17:46 64.365967 -32.879215 280 33210ft 418kts
20-Feb-17 17:47 64.395730 -33.139837 281 33209ft 425kts
20-Feb-17 17:48 64.425228 -33.403602 281 33207ft 424kts
20-Feb-17 17:49 64.454176 -33.667439 281 33208ft 424kts
20-Feb-17 17:50 64.483385 -33.931308 280 33210ft 424kts
20-Feb-17 17:51 64.511544 -34.197018 280 33209ft 424kts
20-Feb-17 17:52 64.539047 -34.462351 280 33207ft 424kts
20-Feb-17 17:53 64.566373 -34.728398 280 33212ft 424kts
20-Feb-17 17:54 64.593612 -34.996423 280 33211ft 427kts
20-Feb-17 17:55 64.619962 -35.265776 280 33209ft 428kts
20-Feb-17 17:56 64.645817 -35.536215 280 33208ft 428kts
20-Feb-17 17:57 64.671124 -35.800389 280 33211ft 428kts
20-Feb-17 17:58 64.693336 -36.039435 280 33209ft 428kts
20-Feb-17 17:59 64.717808 -36.311383 279 33209ft 428kts
20-Feb-17 18:00 64.741712 -36.583404 280 33208ft 428kts
20-Feb-17 18:01 64.765766 -36.855403 279 33211ft 428kts
20-Feb-17 18:02 64.788863 -37.128650 279 33210ft 430kts
20-Feb-17 18:03 64.811527 -37.405064 279 33207ft 431kts
20-Feb-17 18:04 64.833588 -37.680714 279 33209ft 432kts
20-Feb-17 18:05 64.855949 -37.957650 279 33211ft 431kts
20-Feb-17 18:06 64.877086 -38.234974 278 33209ft 431kts
20-Feb-17 18:07 64.897651 -38.512927 278 33208ft 432kts
20-Feb-17 18:08 64.918100 -38.789584 278 33211ft 431kts
20-Feb-17 18:09 64.937908 -39.067879 278 33210ft 433kts
20-Feb-17 18:10 64.957062 -39.348860 278 33208ft 434kts
20-Feb-17 18:11 64.975591 -39.629252 278 33208ft 434kts
20-Feb-17 18:12 64.994381 -39.910474 277 33211ft 434kts
20-Feb-17 18:13 65.024756 -40.185555 286 33213ft 436kts
20-Feb-17 18:14 65.061873 -40.457275 286 33209ft 435kts
20-Feb-17 18:15 65.098371 -40.730509 286 33211ft 435kts
20-Feb-17 18:16 65.134655 -41.005151 285 33209ft 438kts
20-Feb-17 18:17 65.170017 -41.281306 285 33209ft 438kts
20-Feb-17 18:18 65.204892 -41.558758 285 33208ft 438kts
20-Feb-17 18:19 65.239922 -41.836873 285 33210ft 438kts
20-Feb-17 18:20 65.273953 -42.115488 284 33213ft 438kts
20-Feb-17 18:21 65.307214 -42.394412 284 33286ft 438kts
20-Feb-17 18:22 65.340094 -42.675221 284 33369ft 438kts
20-Feb-17 18:23 65.373047 -42.954955 283 33372ft 438kts
20-Feb-17 18:24 65.404989 -43.237606 284 33371ft 441kts
20-Feb-17 18:25 65.436470 -43.522161 284 33370ft 441kts
20-Feb-17 18:26 65.467902 -43.806473 283 33373ft 441kts
20-Feb-17 18:27 65.498512 -44.091598 283 33371ft 441kts
20-Feb-17 18:28 65.528316 -44.377385 283 33371ft 441kts
20-Feb-17 18:29 65.557645 -44.664671 282 33370ft 441kts
20-Feb-17 18:30 65.587112 -44.951300 282 33372ft 441kts
20-Feb-17 18:31 65.615474 -45.240282 282 33371ft 442kts
20-Feb-17 18:32 65.643195 -45.529724 282 33370ft 442kts
20-Feb-17 18:33 65.670944 -45.819473 281 33373ft 442kts
20-Feb-17 18:34 65.697888 -46.110868 281 33373ft 442kts
20-Feb-17 18:35 65.723874 -46.401140 281 33477ft 442kts
20-Feb-17 18:36 65.749424 -46.692782 281 33507ft 441kts
20-Feb-17 18:37 65.775000 -46.983752 281 33507ft 442kts
20-Feb-17 18:38 65.799465 -47.276845 281 33506ft 443kts
20-Feb-17 18:39 65.823381 -47.571481 281 33505ft 443kts
20-Feb-17 18:40 65.847276 -47.864780 280 33507ft 443kts
20-Feb-17 18:42 65.870147 -48.159301 280 33506ft 443kts
20-Feb-17 18:43 65.892350 -48.455254 280 33505ft 443kts
20-Feb-17 18:44 65.914229 -48.750223 280 33507ft 443kts
20-Feb-17 18:45 65.935670 -49.045912 279 33506ft 443kts
20-Feb-17 18:46 65.956211 -49.343738 279 33505ft 443kts
20-Feb-17 18:47 65.976079 -49.641153 279 33505ft 443kts
20-Feb-17 18:48 65.996102 -49.938495 278 33506ft 443kts
20-Feb-17 18:49 66.007353 -50.240406 275 33505ft 443kts
20-Feb-17 18:50 66.016286 -50.541680 274 33505ft 443kts
20-Feb-17 18:51 66.025107 -50.843151 274 33507ft 443kts
20-Feb-17 18:52 66.032915 -51.144976 274 33506ft 443kts
20-Feb-17 18:53 66.039918 -51.446734 274 33505ft 443kts
20-Feb-17 18:54 66.046672 -51.749223 273 33507ft 443kts
20-Feb-17 18:55 66.052968 -52.051413 273 33506ft 443kts
20-Feb-17 18:56 66.058229 -52.354239 273 33498ft 443kts
20-Feb-17 18:57 66.062857 -52.657000 272 33488ft 444kts
20-Feb-17 18:58 66.067683 -52.960189 272 33453ft 444kts
20-Feb-17 18:59 66.071203 -53.263144 272 33452ft 444kts
20-Feb-17 19:00 66.074049 -53.566108 272 33451ft 444kts
20-Feb-17 19:01 66.076981 -53.869278 271 33453ft 444kts
20-Feb-17 19:02 66.078822 -54.173331 271 33452ft 444kts
20-Feb-17 19:03 66.079893 -54.476502 271 33451ft 444kts
20-Feb-17 19:04 66.080828 -54.780262 270 33453ft 444kts
20-Feb-17 19:05 66.081072 -55.083417 270 33452ft 443kts
20-Feb-17 19:06 66.080374 -55.386574 270 33452ft 442kts
20-Feb-17 19:07 66.079103 -55.688711 269 33452ft 442kts
20-Feb-17 19:08 66.077962 -55.990712 269 33452ft 442kts
20-Feb-17 19:09 66.075524 -56.293585 269 33452ft 442kts
20-Feb-17 19:10 66.072442 -56.595238 269 33451ft 442kts
20-Feb-17 19:11 66.069479 -56.897902 268 33453ft 442kts
20-Feb-17 19:12 66.065351 -57.199659 268 33451ft 441kts
20-Feb-17 19:13 66.060516 -57.500877 268 33451ft 441kts
20-Feb-17 19:14 66.055622 -57.801714 268 33613ft 440kts
20-Feb-17 19:15 66.049918 -58.102539 268 33732ft 440kts
20-Feb-17 19:16 66.043370 -58.401878 268 33736ft 440kts
20-Feb-17 19:17 66.036345 -58.699585 267 33738ft 440kts
20-Feb-17 19:18 66.029315 -58.999011 267 33737ft 438kts
20-Feb-17 19:19 66.021095 -59.297167 267 33736ft 438kts
20-Feb-17 19:20 66.012238 -59.595011 267 33735ft 438kts
20-Feb-17 19:21 66.003551 -59.891704 267 33737ft 438kts
20-Feb-17 19:22 65.996713 -60.188707 269 33736ft 436kts
20-Feb-17 19:23 65.990797 -60.485498 269 33735ft 436kts
20-Feb-17 19:24 65.984798 -60.782905 268 33738ft 436kts
20-Feb-17 19:26 65.970580 -61.374325 269 33735ft 434kts
20-Feb-17 19:27 65.962488 -61.668078 268 33735ft 434kts
20-Feb-17 19:28 65.954569 -61.963006 268 33737ft 434kts
20-Feb-17 19:29 65.945386 -62.257538 268 33736ft 434kts
20-Feb-17 19:30 65.935563 -62.551948 268 33735ft 434kts
20-Feb-17 19:31 65.925830 -62.845720 267 33737ft 434kts
20-Feb-17 19:32 65.915120 -63.138643 267 33736ft 432kts
20-Feb-17 19:33 65.903673 -63.431418 267 33734ft 432kts
20-Feb-17 19:34 65.891876 -63.723695 267 33738ft 433kts
20-Feb-17 19:35 65.879896 -64.015784 267 33736ft 433kts
20-Feb-17 19:36 65.866826 -64.307249 267 33735ft 433kts
20-Feb-17 19:37 65.853102 -64.599524 267 33734ft 433kts
20-Feb-17 19:38 65.839605 -64.890064 267 33737ft 431kts
20-Feb-17 19:39 65.825091 -65.178442 267 33736ft 430kts
20-Feb-17 19:40 65.809849 -65.467416 267 33734ft 430kts
20-Feb-17 19:41 65.794464 -65.755656 266 33738ft 430kts
20-Feb-17 19:42 65.778557 -66.044157 266 33736ft 431kts
20-Feb-17 19:43 65.761657 -66.332948 266 33764ft 430kts
20-Feb-17 19:44 65.744260 -66.620018 266 33879ft 431kts
20-Feb-17 19:45 65.727024 -66.907500 265 33883ft 431kts
20-Feb-17 19:46 65.708643 -67.194085 265 33882ft 427kts
20-Feb-17 19:47 65.689773 -67.478163 265 33881ft 427kts
20-Feb-17 19:48 65.670793 -67.761695 265 33886ft 428kts
20-Feb-17 19:49 65.651264 -68.045024 265 33883ft 428kts
20-Feb-17 19:50 65.630787 -68.328461 265 33882ft 428kts
20-Feb-17 19:51 65.609728 -68.611704 265 33881ft 428kts
20-Feb-17 19:52 65.589050 -68.892314 264 33884ft 428kts
20-Feb-17 19:53 65.567259 -69.172249 264 33883ft 423kts
20-Feb-17 19:54 65.544884 -69.451322 264 33882ft 423kts
20-Feb-17 19:55 65.522316 -69.729132 264 33887ft 423kts
20-Feb-17 19:56 65.496917 -70.006174 257 33885ft 429kts
20-Feb-17 19:57 65.456862 -70.276001 255 33884ft 430kts
20-Feb-17 19:58 65.414583 -70.544703 255 33883ft 431kts
20-Feb-17 19:59 65.372163 -70.813236 255 33887ft 431kts
20-Feb-17 20:00 65.329237 -71.078526 255 33886ft 426kts
20-Feb-17 20:01 65.285776 -71.342093 255 33885ft 426kts
20-Feb-17 20:02 65.241685 -71.605581 255 33884ft 427kts
20-Feb-17 20:03 65.197934 -71.868035 254 33888ft 427kts
20-Feb-17 20:04 65.153147 -72.129420 254 33887ft 428kts
20-Feb-17 20:05 65.107737 -72.390059 254 33912ft 428kts
20-Feb-17 20:06 65.061883 -72.649695 254 33933ft 428kts
20-Feb-17 20:06 65.023822 -72.866972 254 33945ft 429kts
20-Feb-17 20:08 64.969498 -73.167692 254 33944ft 423kts
20-Feb-17 20:09 64.923051 -73.420744 254 33943ft 423kts
20-Feb-17 20:10 64.876032 -73.673709 253 33934ft 423kts
20-Feb-17 20:10 64.837052 -73.885095 253 33937ft 423kts
20-Feb-17 20:11 64.789247 -74.136971 253 33935ft 424kts
20-Feb-17 20:12 64.740975 -74.387579 253 33935ft 424kts
20-Feb-17 20:13 64.692013 -74.638593 253 33934ft 424kts
20-Feb-17 20:14 64.643408 -74.888941 252 33939ft 425kts
20-Feb-17 20:15 64.594151 -75.135915 253 33938ft 417kts
20-Feb-17 20:16 64.544876 -75.379710 253 33936ft 418kts
20-Feb-17 20:17 64.495115 -75.622902 253 33935ft 418kts
20-Feb-17 20:18 64.445489 -75.866526 252 33942ft 419kts
20-Feb-17 20:19 64.394951 -76.108535 252 33940ft 419kts
20-Feb-17 20:20 64.343636 -76.350819 252 33938ft 420kts
20-Feb-17 20:22 64.283339 -76.631938 252 33938ft 420kts
20-Feb-17 20:23 64.231963 -76.872309 251 33944ft 419kts
20-Feb-17 20:24 64.180198 -77.108640 251 33943ft 414kts
20-Feb-17 20:24 64.136662 -77.304971 251 33940ft 414kts
20-Feb-17 20:25 64.084263 -77.538862 251 33941ft 415kts
20-Feb-17 20:26 64.031666 -77.773680 251 33946ft 416kts
20-Feb-17 20:27 63.978676 -78.006592 250 33944ft 416kts
20-Feb-17 20:28 63.924823 -78.239391 250 33944ft 416kts
20-Feb-17 20:29 63.870650 -78.470960 250 33933ft 417kts
20-Feb-17 20:30 63.816613 -78.700256 250 33939ft 417kts
20-Feb-17 20:31 63.761932 -78.932128 250 33937ft 418kts
20-Feb-17 20:32 63.706592 -79.161601 249 33937ft 415kts
20-Feb-17 20:33 63.651152 -79.388792 249 33935ft 415kts
20-Feb-17 20:34 63.595435 -79.614779 249 33935ft 415kts
20-Feb-17 20:35 63.539847 -79.841159 248 33940ft 416kts
20-Feb-17 20:36 63.484138 -80.066941 249 33992ft 414kts
20-Feb-17 20:37 63.429784 -80.292166 248 34052ft 406kts
20-Feb-17 20:38 63.375989 -80.513004 248 34056ft 407kts
20-Feb-17 20:39 63.322192 -80.733406 248 34066ft 405kts
20-Feb-17 20:40 63.268023 -80.953434 247 34060ft 408kts
20-Feb-17 20:41 63.213066 -81.172624 246 34053ft 407kts
20-Feb-17 20:42 63.157699 -81.390997 246 34049ft 407kts
20-Feb-17 20:43 63.101829 -81.609231 246 34055ft 408kts
20-Feb-17 20:44 63.046340 -81.826908 246 34061ft 409kts
20-Feb-17 20:45 62.989846 -82.044042 245 34060ft 409kts
20-Feb-17 20:46 62.932926 -82.260034 246 34059ft 409kts
20-Feb-17 20:47 62.875755 -82.474867 246 34054ft 410kts
20-Feb-17 20:48 62.818162 -82.689667 246 34058ft 410kts
20-Feb-17 20:49 62.760647 -82.904624 244 34056ft 410kts
20-Feb-17 20:50 62.702278 -83.118055 243 34057ft 411kts
20-Feb-17 20:51 62.643474 -83.330704 243 34056ft 411kts
20-Feb-17 20:52 62.584370 -83.542481 243 34055ft 412kts
20-Feb-17 20:53 62.525165 -83.754698 243 34061ft 413kts
20-Feb-17 20:54 62.465683 -83.965238 243 34062ft 413kts
20-Feb-17 20:55 62.405469 -84.175166 243 34055ft 411kts
20-Feb-17 20:56 62.344829 -84.384547 242 34060ft 412kts
20-Feb-17 20:57 62.283981 -84.592667 242 34053ft 413kts
20-Feb-17 20:58 62.223262 -84.801041 242 34065ft 412kts
20-Feb-17 20:59 62.161994 -85.007642 241 34057ft 412kts
20-Feb-17 21:00 62.099865 -85.214613 240 34059ft 415kts
20-Feb-17 21:01 62.037436 -85.420438 240 34053ft 415kts
20-Feb-17 21:02 61.974434 -85.626438 240 34057ft 414kts
20-Feb-17 21:03 61.911864 -85.831920 239 34060ft 415kts
20-Feb-17 21:04 61.848382 -86.036272 239 34059ft 415kts
20-Feb-17 21:05 61.784735 -86.238907 239 34058ft 416kts
20-Feb-17 21:06 61.720377 -86.441979 239 34059ft 415kts
20-Feb-17 21:07 61.655980 -86.643366 240 34055ft 416kts
20-Feb-17 21:08 61.591692 -86.845400 238 34057ft 417kts
20-Feb-17 21:09 61.526380 -87.046623 237 34059ft 420kts
20-Feb-17 21:10 61.460049 -87.248684 237 34055ft 422kts
20-Feb-17 21:11 61.393484 -87.449705 237 34042ft 422kts
20-Feb-17 21:12 61.326389 -87.650573 236 33992ft 423kts
20-Feb-17 21:13 61.259617 -87.851465 237 33995ft 423kts
20-Feb-17 21:14 61.192058 -88.050608 236 33995ft 423kts
20-Feb-17 21:15 61.124012 -88.249155 236 33994ft 423kts
20-Feb-17 21:16 61.055825 -88.446396 236 33989ft 424kts
20-Feb-17 21:17 60.987091 -88.643530 236 33994ft 423kts
20-Feb-17 21:18 60.919823 -88.837409 236 33997ft 424kts
20-Feb-17 21:19 60.850662 -89.032901 235 33997ft 430kts
20-Feb-17 21:20 60.780000 -89.230510 234 33995ft 430kts
20-Feb-17 21:21 60.709257 -89.426676 234 33993ft 430kts
20-Feb-17 21:22 60.638034 -89.622525 234 33993ft 430kts
20-Feb-17 21:23 60.567223 -89.817972 234 33994ft 430kts
20-Feb-17 21:24 60.495396 -90.011511 233 33995ft 431kts
20-Feb-17 21:25 60.421410 -90.201178 233 33994ft 430kts
20-Feb-17 21:26 60.346904 -90.390144 232 33992ft 430kts
20-Feb-17 21:27 60.272063 -90.578381 232 33992ft 430kts
20-Feb-17 21:28 60.198360 -90.764121 232 33995ft 431kts
20-Feb-17 21:29 60.123204 -90.950893 232 33995ft 431kts
20-Feb-17 21:30 60.047392 -91.137119 231 33992ft 434kts
20-Feb-17 21:31 59.970465 -91.324441 231 33873ft 437kts
20-Feb-17 21:32 59.893894 -91.509422 231 33654ft 437kts
20-Feb-17 21:33 59.816515 -91.695509 231 33558ft 437kts
20-Feb-17 21:34 59.739431 -91.880583 230 33557ft 437kts
20-Feb-17 21:35 59.661230 -92.065189 230 33556ft 438kts
20-Feb-17 21:36 59.582978 -92.248314 230 33555ft 437kts
20-Feb-17 21:37 59.504708 -92.430106 229 33516ft 437kts
20-Feb-17 21:38 59.425958 -92.611437 229 33517ft 437kts
20-Feb-17 21:39 59.347705 -92.792301 228 33519ft 437kts
20-Feb-17 21:40 59.268474 -92.972464 228 33518ft 438kts
20-Feb-17 21:41 59.188758 -93.151889 228 33517ft 440kts
20-Feb-17 21:42 59.108469 -93.331154 228 33516ft 440kts
20-Feb-17 21:43 59.027830 -93.509825 228 33516ft 439kts
20-Feb-17 21:44 58.948159 -93.685409 227 33515ft 433kts
20-Feb-17 21:45 58.869542 -93.858835 226 33522ft 428kts
20-Feb-17 21:46 58.790432 -94.030352 226 33520ft 428kts
20-Feb-17 21:47 58.711435 -94.201362 227 33520ft 428kts
20-Feb-17 21:48 58.632670 -94.372504 227 33518ft 428kts
20-Feb-17 21:49 58.553738 -94.542734 227 33517ft 428kts
20-Feb-17 21:50 58.474959 -94.712436 227 33520ft 428kts
20-Feb-17 21:51 58.395877 -94.881725 226 33519ft 430kts
20-Feb-17 21:52 58.315351 -95.051730 226 33517ft 435kts
20-Feb-17 21:53 58.234337 -95.221402 226 33516ft 435kts
20-Feb-17 21:54 58.152974 -95.390558 226 33516ft 435kts
20-Feb-17 21:55 58.071489 -95.558737 226 33514ft 435kts
20-Feb-17 21:56 57.990047 -95.726893 225 33516ft 435kts
20-Feb-17 21:57 57.908527 -95.893646 225 33423ft 435kts
20-Feb-17 21:58 57.826191 -96.060025 225 33320ft 436kts
20-Feb-17 21:59 57.743787 -96.225266 225 33320ft 436kts
20-Feb-17 22:00 57.660876 -96.390331 225 33359ft 435kts
20-Feb-17 22:01 57.577884 -96.554376 225 33351ft 435kts
20-Feb-17 22:02 57.495410 -96.717373 225 33407ft 435kts
20-Feb-17 22:03 57.412210 -96.880529 224 33363ft 435kts
20-Feb-17 22:04 57.328884 -97.041892 224 33362ft 435kts
20-Feb-17 22:05 57.244990 -97.203131 224 33361ft 436kts
20-Feb-17 22:06 57.160964 -97.363461 224 33360ft 436kts
20-Feb-17 22:07 57.076775 -97.522987 224 33358ft 435kts
20-Feb-17 22:08 56.992786 -97.681374 224 33360ft 434kts
20-Feb-17 22:09 56.908737 -97.840156 224 33360ft 434kts
20-Feb-17 22:10 56.824383 -97.996907 224 33366ft 434kts
20-Feb-17 22:11 56.739851 -98.152776 224 33365ft 434kts
20-Feb-17 22:12 56.654754 -98.308617 224 33364ft 434kts
20-Feb-17 22:13 56.569746 -98.463241 224 33363ft 434kts
20-Feb-17 22:14 56.484680 -98.616932 224 33361ft 434kts
20-Feb-17 22:15 56.400158 -98.770269 224 33363ft 434kts
20-Feb-17 22:16 56.314511 -98.923347 223 33362ft 434kts
20-Feb-17 22:17 56.228571 -99.075571 224 33361ft 436kts
20-Feb-17 22:18 56.142220 -99.227477 224 33360ft 436kts
20-Feb-17 22:19 56.055593 -99.378859 224 33360ft 436kts
20-Feb-17 22:20 55.968975 -99.529228 224 33388ft 436kts
20-Feb-17 22:21 55.882261 -99.679067 223 33394ft 436kts
20-Feb-17 22:23 55.795483 -99.829312 223 33413ft 436kts
20-Feb-17 22:24 55.708355 -99.977764 223 33420ft 436kts
20-Feb-17 22:25 55.620987 -100.125527 223 33419ft 436kts
20-Feb-17 22:26 55.533213 -100.273009 223 33418ft 436kts
20-Feb-17 22:27 55.445526 -100.419399 223 33424ft 436kts
20-Feb-17 22:28 55.357256 -100.565813 223 33433ft 436kts
20-Feb-17 22:29 55.269592 -100.711286 223 33436ft 436kts
20-Feb-17 22:30 55.181392 -100.856581 222 33435ft 437kts
20-Feb-17 22:31 55.092867 -101.000709 222 33434ft 437kts
20-Feb-17 22:32 55.003644 -101.144971 223 33433ft 438kts
20-Feb-17 22:33 54.914494 -101.288200 223 33433ft 438kts
20-Feb-17 22:34 54.825401 -101.430473 224 33436ft 438kts
20-Feb-17 22:35 54.735561 -101.573025 224 33435ft 438kts
20-Feb-17 22:36 54.646030 -101.715234 223 33439ft 438kts
20-Feb-17 22:37 54.556346 -101.856511 223 33438ft 438kts
20-Feb-17 22:38 54.466224 -101.996895 223 33437ft 437kts
20-Feb-17 22:39 54.376000 -102.136545 223 33436ft 437kts
20-Feb-17 22:40 54.285684 -102.275459 223 33434ft 437kts
20-Feb-17 22:41 54.195221 -102.413746 223 33434ft 437kts
20-Feb-17 22:42 54.104758 -102.551189 223 33442ft 437kts
20-Feb-17 22:43 54.014129 -102.688600 223 33473ft 438kts
20-Feb-17 22:44 53.923625 -102.825586 223 33481ft 438kts
20-Feb-17 22:45 53.832362 -102.961846 223 33484ft 438kts
20-Feb-17 22:46 53.741000 -103.097339 223 33483ft 440kts
20-Feb-17 22:47 53.648898 -103.233105 223 33482ft 441kts
20-Feb-17 22:48 53.556678 -103.368225 223 33481ft 441kts
20-Feb-17 22:49 53.464151 -103.502985 223 33480ft 441kts
20-Feb-17 22:50 53.371505 -103.637114 223 33479ft 441kts
20-Feb-17 22:51 53.279143 -103.771513 222 33483ft 441kts
20-Feb-17 22:52 53.186300 -103.904570 222 33482ft 441kts
20-Feb-17 22:53 53.093326 -104.036804 222 33482ft 440kts
20-Feb-17 22:54 53.001048 -104.167246 223 33480ft 434kts
20-Feb-17 22:55 52.909303 -104.296236 224 33480ft 432kts
20-Feb-17 22:56 52.818041 -104.423809 224 33480ft 432kts
20-Feb-17 22:57 52.726479 -104.551063 224 33479ft 432kts
20-Feb-17 22:58 52.634779 -104.678104 223 33485ft 432kts
20-Feb-17 22:59 52.543017 -104.805417 223 33484ft 433kts
20-Feb-17 23:00 52.450883 -104.931415 223 33483ft 433kts
20-Feb-17 23:01 52.358555 -105.056866 223 33482ft 433kts
20-Feb-17 23:02 52.266120 -105.181753 223 33481ft 433kts
20-Feb-17 23:03 52.173224 -105.306562 223 33479ft 432kts
20-Feb-17 23:04 52.080513 -105.430431 223 33481ft 433kts
20-Feb-17 23:05 51.987621 -105.553855 223 33497ft 433kts
20-Feb-17 23:06 51.895301 -105.676069 223 33511ft 433kts
20-Feb-17 23:07 51.802427 -105.799264 222 33512ft 433kts
20-Feb-17 23:08 51.709283 -105.921042 222 33511ft 433kts
20-Feb-17 23:09 51.615539 -106.042830 222 33510ft 433kts
20-Feb-17 23:10 51.522132 -106.163512 222 33509ft 433kts
20-Feb-17 23:11 51.428258 -106.284142 222 33507ft 433kts
20-Feb-17 23:12 51.334696 -106.403722 222 33506ft 433kts
20-Feb-17 23:13 51.240524 -106.523437 222 33506ft 433kts
20-Feb-17 23:14 51.146548 -106.642259 222 33504ft 433kts
20-Feb-17 23:15 51.052847 -106.761433 222 33511ft 434kts
20-Feb-17 23:16 50.958752 -106.879312 222 33468ft 428kts
20-Feb-17 23:17 50.866750 -106.993821 223 33438ft 421kts
20-Feb-17 23:18 50.774978 -107.107476 223 33436ft 421kts
20-Feb-17 23:19 50.682926 -107.220863 223 33435ft 421kts
20-Feb-17 23:20 50.590454 -107.334184 223 33433ft 421kts
20-Feb-17 23:21 50.498101 -107.446781 223 33432ft 421kts
20-Feb-17 23:22 50.405776 -107.558781 223 33431ft 421kts
20-Feb-17 23:23 50.313451 -107.670394 223 33438ft 421kts
20-Feb-17 23:24 50.226220 -107.790469 226 33438ft 419kts
20-Feb-17 23:25 50.140170 -107.911868 226 33437ft 419kts
20-Feb-17 23:26 50.053403 -108.033008 226 33436ft 419kts
20-Feb-17 23:27 49.966923 -108.153075 226 33434ft 419kts
20-Feb-17 23:28 49.880112 -108.272987 226 33435ft 419kts
20-Feb-17 23:29 49.793141 -108.392531 226 33434ft 419kts
20-Feb-17 23:30 49.705928 -108.511803 226 33432ft 419kts
20-Feb-17 23:31 49.618811 -108.630352 226 33431ft 420kts
20-Feb-17 23:32 49.532628 -108.748279 225 33440ft 420kts
20-Feb-17 23:33 49.444945 -108.866705 225 33448ft 420kts
20-Feb-17 23:34 49.357319 -108.984219 225 33455ft 420kts
20-Feb-17 23:35 49.269581 -109.101279 225 33453ft 418kts
20-Feb-17 23:36 49.182299 -109.217166 225 33452ft 416kts
20-Feb-17 23:37 49.094973 -109.332537 225 33450ft 415kts
20-Feb-17 23:38 49.008280 -109.446517 226 33453ft 408kts
20-Feb-17 23:39 48.923352 -109.557729 226 33457ft 402kts
20-Feb-17 23:40 48.839055 -109.667745 226 33468ft 402kts
20-Feb-17 23:41 48.754550 -109.778585 226 33470ft 403kts
20-Feb-17 23:42 48.669268 -109.888854 226 33466ft 404kts
20-Feb-17 23:43 48.584134 -109.998310 225 33464ft 403kts
20-Feb-17 23:44 48.498760 -110.107555 226 33461ft 403kts
20-Feb-17 23:45 48.413280 -110.216426 226 33463ft 404kts
20-Feb-17 23:46 48.327535 -110.325146 226 33457ft 403kts
20-Feb-17 23:47 48.242017 -110.433090 226 33460ft 403kts
20-Feb-17 23:48 48.156054 -110.541102 226 33473ft 403kts
20-Feb-17 23:49 48.070242 -110.648447 226 33491ft 403kts
20-Feb-17 23:50 47.984867 -110.755966 225 33504ft 404kts
20-Feb-17 23:51 47.898599 -110.863101 225 33500ft 404kts
20-Feb-17 23:52 47.812273 -110.969671 225 33503ft 406kts
20-Feb-17 23:53 47.725280 -111.076549 225 33503ft 408kts
20-Feb-17 23:54 47.637891 -111.183449 225 33496ft 408kts
20-Feb-17 23:55 47.550249 -111.290172 225 33487ft 409kts
20-Feb-17 23:56 47.462474 -111.396562 225 33490ft 409kts
20-Feb-17 23:57 47.373481 -111.500554 224 33482ft 409kts
20-Feb-17 23:58 47.284142 -111.603911 224 33484ft 410kts
20-Feb-17 23:59 47.195147 -111.707263 224 33496ft 410kts
21-Feb-17 00:00 47.105696 -111.810306 223 33518ft 411kts
21-Feb-17 00:01 47.015652 -111.913165 223 33548ft 409kts
21-Feb-17 00:02 46.926789 -112.014163 224 33547ft 403kts
21-Feb-17 00:03 46.839501 -112.112995 224 33546ft 397kts
21-Feb-17 00:04 46.752218 -112.211393 224 33544ft 399kts
21-Feb-17 00:05 46.664365 -112.310012 224 33540ft 399kts
21-Feb-17 00:06 46.576779 -112.407918 224 33537ft 399kts
21-Feb-17 00:07 46.488745 -112.505908 224 33548ft 398kts
21-Feb-17 00:08 46.400815 -112.603380 224 33570ft 399kts
21-Feb-17 00:09 46.313563 -112.700441 224 33588ft 399kts
21-Feb-17 00:10 46.225602 -112.797635 224 33584ft 400kts
21-Feb-17 00:10 46.152014 -112.878277 223 33582ft 396kts
21-Feb-17 00:12 46.050007 -112.989538 223 33580ft 393kts
21-Feb-17 00:13 45.963454 -113.083529 223 33579ft 392kts
21-Feb-17 00:14 45.876941 -113.177104 223 33585ft 392kts
21-Feb-17 00:14 45.804625 -113.255042 223 33581ft 392kts
21-Feb-17 00:15 45.717629 -113.348450 223 33586ft 392kts
21-Feb-17 00:16 45.630775 -113.441331 223 33591ft 390kts
21-Feb-17 00:17 45.543727 -113.534058 223 33592ft 392kts
21-Feb-17 00:18 45.456826 -113.626270 223 33592ft 392kts
21-Feb-17 00:19 45.370485 -113.718423 222 33607ft 392kts
21-Feb-17 00:20 45.283086 -113.810731 222 33601ft 391kts
21-Feb-17 00:21 45.195719 -113.902371 223 33600ft 392kts
21-Feb-17 00:22 45.108159 -113.993832 222 33597ft 392kts
21-Feb-17 00:24 45.009196 -114.101572 231 33593ft 376kts
21-Feb-17 00:24 44.950015 -114.190099 232 33593ft 372kts
21-Feb-17 00:25 44.880234 -114.293544 231 33609ft 372kts
21-Feb-17 00:26 44.808745 -114.399040 231 33614ft 372kts
21-Feb-17 00:27 44.737764 -114.503382 231 33612ft 373kts
21-Feb-17 00:28 44.666212 -114.608157 231 33610ft 372kts
21-Feb-17 00:29 44.595149 -114.712676 231 33625ft 373kts
21-Feb-17 00:30 44.523567 -114.817174 231 33624ft 373kts
21-Feb-17 00:31 44.451607 -114.921416 231 33621ft 373kts
21-Feb-17 00:32 44.379651 -115.025213 231 33618ft 371kts
21-Feb-17 00:33 44.308083 -115.128049 230 33615ft 369kts
21-Feb-17 00:34 44.236777 -115.230130 230 33611ft 368kts
21-Feb-17 00:35 44.165360 -115.331995 230 33615ft 368kts
21-Feb-17 00:36 44.093790 -115.433694 230 33627ft 368kts
21-Feb-17 00:37 44.022142 -115.535142 230 33623ft 368kts
21-Feb-17 00:38 43.950679 -115.635957 230 33620ft 367kts
21-Feb-17 00:39 43.879900 -115.736475 229 33648ft 368kts
21-Feb-17 00:40 43.808478 -115.836774 229 33644ft 368kts
21-Feb-17 00:41 43.736462 -115.937309 229 33642ft 368kts
21-Feb-17 00:42 43.664488 -116.037388 229 33639ft 368kts
21-Feb-17 00:43 43.592494 -116.137134 229 33636ft 367kts
21-Feb-17 00:44 43.524915 -116.241647 235 33627ft 365kts
21-Feb-17 00:45 43.463231 -116.351788 235 33604ft 365kts
21-Feb-17 00:46 43.401092 -116.462199 235 33593ft 365kts
21-Feb-17 00:47 43.339114 -116.571894 235 33589ft 365kts
21-Feb-17 00:48 43.277227 -116.681418 235 33608ft 365kts
21-Feb-17 00:49 43.215246 -116.791257 234 33612ft 365kts
21-Feb-17 00:50 43.152797 -116.900696 234 33615ft 365kts
21-Feb-17 00:51 43.090346 -117.009636 233 33610ft 365kts
21-Feb-17 00:52 43.027483 -117.118856 232 33610ft 365kts
21-Feb-17 00:53 42.965441 -117.226186 233 33607ft 358kts
21-Feb-17 00:54 42.904144 -117.331896 234 33605ft 353kts
21-Feb-17 00:55 42.843656 -117.435880 235 33616ft 351kts
21-Feb-17 00:56 42.783148 -117.539525 235 33612ft 350kts
21-Feb-17 00:57 42.722719 -117.642663 234 33599ft 351kts
21-Feb-17 00:58 42.662653 -117.745953 234 33578ft 351kts
21-Feb-17 00:59 42.601009 -117.848873 229 33530ft 354kts
21-Feb-17 01:00 42.512682 -117.915416 214 33555ft 370kts
21-Feb-17 01:01 42.419179 -117.973258 214 33587ft 371kts
21-Feb-17 01:02 42.325517 -118.030486 214 33608ft 370kts
21-Feb-17 01:03 42.231744 -118.087519 214 33672ft 371kts
21-Feb-17 01:04 42.137995 -118.144351 213 33677ft 371kts
21-Feb-17 01:05 42.044002 -118.201131 214 33673ft 370kts
21-Feb-17 01:06 41.950392 -118.257499 214 33670ft 371kts
21-Feb-17 01:07 41.856553 -118.313828 214 33682ft 371kts
21-Feb-17 01:08 41.762869 -118.369889 213 33681ft 371kts
21-Feb-17 01:09 41.668763 -118.426010 213 33677ft 371kts
21-Feb-17 01:10 41.575010 -118.481746 213 33705ft 371kts
21-Feb-17 01:11 41.481089 -118.537407 213 33701ft 371kts
21-Feb-17 01:12 41.386905 -118.593043 213 33700ft 371kts
21-Feb-17 01:13 41.292759 -118.648480 213 33696ft 370kts
21-Feb-17 01:14 41.199842 -118.703789 213 33715ft 371kts
21-Feb-17 01:15 41.105756 -118.758994 213 33714ft 371kts
21-Feb-17 01:16 41.012154 -118.813593 214 33733ft 367kts
21-Feb-17 01:17 40.919801 -118.867300 214 33745ft 361kts
21-Feb-17 01:18 40.829212 -118.919826 214 33757ft 357kts
21-Feb-17 01:19 40.739092 -118.971922 214 33754ft 355kts
21-Feb-17 01:20 40.649508 -119.023557 214 33750ft 352kts
21-Feb-17 01:21 40.563786 -119.079721 226 33746ft 333kts
21-Feb-17 01:22 40.496170 -119.162037 229 33748ft 332kts
21-Feb-17 01:23 40.428779 -119.244916 228 33748ft 333kts
21-Feb-17 01:24 40.361555 -119.327550 229 33739ft 333kts
21-Feb-17 01:25 40.294346 -119.409988 228 33745ft 331kts
21-Feb-17 01:26 40.226971 -119.492381 229 33748ft 331kts
21-Feb-17 01:27 40.159544 -119.574601 228 33749ft 332kts
21-Feb-17 01:28 40.092608 -119.656006 228 33753ft 332kts
21-Feb-17 01:29 40.025568 -119.738212 229 33765ft 331kts
21-Feb-17 01:30 39.958041 -119.820055 228 33762ft 332kts
21-Feb-17 01:31 39.891156 -119.900719 229 33773ft 332kts
21-Feb-17 01:32 39.823960 -119.981515 228 33772ft 333kts
21-Feb-17 01:33 39.756284 -120.062673 228 33770ft 333kts
21-Feb-17 01:34 39.688323 -120.143944 228 33765ft 333kts
21-Feb-17 01:35 39.620424 -120.224915 228 33766ft 332kts
21-Feb-17 01:36 39.552375 -120.305816 228 33776ft 332kts
21-Feb-17 01:37 39.484573 -120.386215 228 33784ft 333kts
21-Feb-17 01:38 39.417261 -120.465813 228 33811ft 328kts
21-Feb-17 01:39 39.350097 -120.545023 228 33818ft 329kts
21-Feb-17 01:40 39.282907 -120.624047 228 33817ft 326kts
21-Feb-17 01:41 39.224997 -120.692527 229 31887ft 290kts
21-Feb-17 01:42 39.163390 -120.765034 226 30078ft 298kts
21-Feb-17 01:43 39.104327 -120.833977 226 27915ft 268kts
21-Feb-17 01:44 39.055827 -120.890472 226 26764ft 224kts
21-Feb-17 01:45 39.009859 -120.944025 225 25471ft 228kts
21-Feb-17 01:46 38.963309 -120.998060 223 22358ft 237kts
21-Feb-17 01:47 38.914666 -121.054416 223 20471ft 236kts
21-Feb-17 01:48 38.868745 -121.107568 223 18740ft 237kts
21-Feb-17 01:49 38.820145 -121.163694 223 17042ft 237kts
21-Feb-17 01:50 38.771145 -121.220166 223 15389ft 237kts
21-Feb-17 01:51 38.722478 -121.276148 223 13819ft 237kts
21-Feb-17 01:52 38.673990 -121.331815 223 12287ft 236kts
21-Feb-17 01:53 38.625503 -121.387392 222 10834ft 234kts
21-Feb-17 01:54 38.577696 -121.442073 220 9384ft 234kts
21-Feb-17 01:55 38.529508 -121.497080 220 7979ft 233kts
21-Feb-17 01:56 38.481276 -121.552025 219 6615ft 231kts
21-Feb-17 01:57 38.433349 -121.606523 220 5492ft 231kts
21-Feb-17 01:58 38.385712 -121.660663 222 5503ft 231kts
21-Feb-17 01:59 38.337965 -121.715227 222 5499ft 229kts
21-Feb-17 02:00 38.290873 -121.768532 223 5492ft 225kts
21-Feb-17 02:01 38.243743 -121.821765 225 5489ft 229kts
21-Feb-17 02:02 38.196514 -121.875010 221 5490ft 229kts
21-Feb-17 02:03 38.149329 -121.928097 222 5002ft 228kts
21-Feb-17 02:04 38.101198 -121.982132 221 4981ft 233kts
21-Feb-17 02:05 38.052342 -122.036956 223 4978ft 234kts
21-Feb-17 02:06 38.017945 -122.105185 211 4995ft 235kts
21-Feb-17 02:07 37.960987 -122.145593 208 4979ft 235kts
21-Feb-17 02:08 37.903108 -122.183888 208 4980ft 233kts
21-Feb-17 02:09 37.847584 -122.220595 209 4597ft 220kts
21-Feb-17 02:10 37.796248 -122.254884 209 3702ft 201kts
21-Feb-17 02:11 37.749320 -122.286141 209 2618ft 176kts
21-Feb-17 02:12 37.712544 -122.310599 209 1811ft 128kts
21-Feb-17 02:13 37.683264 -122.330058 208 1199ft 117kts
21-Feb-17 02:14 37.654524 -122.349126 207 617ft 116kts
21-Feb-17 02:15 37.625996 -122.368018 209 26ft 111kts
21-Feb-17 02:16 37.613516 -122.376339 211 24ft 12kts
21-Feb-17 02:17 37.613258 -122.378937 300 24ft 10kts
21-Feb-17 02:18 37.615030 -122.380724 22 24ft 11kts
21-Feb-17 02:19 37.618164 -122.379566 333 24ft 11kts
21-Feb-17 02:20 37.620404 -122.383712 292 24ft 12kts
21-Feb-17 02:21 37.621878 -122.387314 296 24ft 8kts
21-Feb-17 02:22 37.621832 -122.388740 236 24ft 3kts
21-Feb-17 02:23 37.621237 -122.389228 208 24ft 0kts
21-Feb-17 02:24 37.645260 -122.355228 207 423ft 115kts
21-Feb-17 02:25 37.618535 -122.373095 208 25ft 71kts
21-Feb-17 02:31 37.617284 -122.391843 30 25ft 0kts

Navigation Log

Ident Type
Flight plan parsing failed, navigation log unavailable